Aviation Digital Data Service (ADDS)

Output produced by METARs form (2144 UTC 01 December 2021)
found at http://www.aviationweather.gov/metar/data/
 
Forecast for: ZPPP (KUNMING/WUJIABA , CN)
Text: TAF ZPPP 011510Z 0118/0218 04004MPS 9999 SCT020 BKN033 TX11/0208Z TN05/0123Z
Forecast period: 1800 UTC 01 December 2021 to 1800 UTC 02 December 2021
Forecast type: FROM: standard forecast or significant change
Winds: from the NE (40 degrees) at 9 MPH (8 knots; 4.1 m/s)
Visibility: 6 or more miles (10+ km)
Ceiling: 3300 feet AGL
Clouds: scattered clouds at 2000 feet AGL
broken clouds at 3300 feet AGL
Weather: no significant weather forecast for this period